createdAt,value
2018-12-05T00:00:00.718Z,97.28
2018-12-05T00:02:28.534Z,96.70
2018-12-05T00:04:55.965Z,95.69
2018-12-05T00:07:23.363Z,96.30
2018-12-05T00:12:28.602Z,95.43
2018-12-05T00:14:55.974Z,95.74
2018-12-05T00:17:23.373Z,96.17
2018-12-05T00:19:50.795Z,95.93
2018-12-05T00:22:18.177Z,96.62
2018-12-05T00:24:45.593Z,97.03
2018-12-05T00:27:12.919Z,97.31
2018-12-05T00:29:40.919Z,97.29
2018-12-05T00:32:09.002Z,97.25
2018-12-05T00:34:36.393Z,97.59
2018-12-05T00:37:04.374Z,97.27
2018-12-05T00:39:31.804Z,97.79
2018-12-05T00:41:59.183Z,97.57
2018-12-05T00:44:26.598Z,97.15
2018-12-05T00:46:54.008Z,97.37
2018-12-05T00:49:21.375Z,97.23
2018-12-05T00:51:48.740Z,96.73
2018-12-05T00:54:16.137Z,97.66
2018-12-05T00:56:43.548Z,97.65
2018-12-05T00:59:10.984Z,96.73
2018-12-05T01:01:38.522Z,97.02
2018-12-05T01:04:06.943Z,97.21
2018-12-05T01:06:34.403Z,97.25
2018-12-05T01:09:01.883Z,97.03
2018-12-05T01:11:29.267Z,96.55
2018-12-05T01:13:56.604Z,96.85
2018-12-05T01:16:24.074Z,96.61
2018-12-05T01:18:51.457Z,95.67
2018-12-05T01:21:19.503Z,95.80
2018-12-05T01:23:47.006Z,95.71
2018-12-05T01:26:14.385Z,95.89
2018-12-05T01:28:41.862Z,96.07
2018-12-05T01:31:09.484Z,95.65
2018-12-05T01:33:37.524Z,95.43
2018-12-05T01:36:04.903Z,95.33
2018-12-05T01:38:32.863Z,95.95
2018-12-05T01:41:00.207Z,96.19
2018-12-05T01:43:32.098Z,96.57
2018-12-05T01:45:59.430Z,95.86
2018-12-05T01:48:27.589Z,95.66
2018-12-05T01:50:54.944Z,95.59
2018-12-05T01:53:22.267Z,95.84
2018-12-05T01:55:49.629Z,96.26
2018-12-05T01:58:16.998Z,95.68
2018-12-05T02:00:44.923Z,95.24
2018-12-05T02:03:12.368Z,95.09
2018-12-05T02:05:40.367Z,95.33
2018-12-05T02:08:18.018Z,95.10
2018-12-05T02:10:45.381Z,94.82
2018-12-05T02:13:12.825Z,94.92
2018-12-05T02:15:40.285Z,95.68
2018-12-05T02:18:08.228Z,95.29
2018-12-05T02:20:35.654Z,96.10
2018-12-05T02:23:03.040Z,95.93
2018-12-05T02:25:30.417Z,95.57
2018-12-05T02:27:57.767Z,95.49
2018-12-05T02:30:25.874Z,96.04
2018-12-05T02:32:54.062Z,95.86
2018-12-05T02:35:22.153Z,96.26
2018-12-05T02:37:49.603Z,96.48
2018-12-05T02:40:17.064Z,96.30
2018-12-05T02:42:44.455Z,96.00
2018-12-05T02:45:11.878Z,96.62
2018-12-05T02:47:39.294Z,96.31
2018-12-05T02:50:06.938Z,96.93
2018-12-05T02:52:34.404Z,96.88
2018-12-05T02:55:01.808Z,97.85
2018-12-05T02:57:29.178Z,97.35
2018-12-05T02:59:56.688Z,97.37
2018-12-05T03:02:24.078Z,97.42
2018-12-05T03:04:51.503Z,97.51
2018-12-05T03:07:18.949Z,97.52
2018-12-05T03:09:47.137Z,98.06
2018-12-05T03:12:14.490Z,98.04
2018-12-05T03:14:41.881Z,98.35
2018-12-05T03:17:09.243Z,98.02
2018-12-05T03:19:36.629Z,97.83
2018-12-05T03:22:04.169Z,97.66
2018-12-05T03:24:31.556Z,97.63
2018-12-05T03:26:58.944Z,98.14
2018-12-05T03:29:26.300Z,97.92
2018-12-05T03:31:53.686Z,97.57
2018-12-05T03:34:21.068Z,97.78
2018-12-05T03:36:48.493Z,97.36
2018-12-05T03:39:15.820Z,97.85
2018-12-05T03:41:43.235Z,97.75
2018-12-05T03:44:10.605Z,97.98
2018-12-05T03:46:37.993Z,98.13
2018-12-05T03:49:05.333Z,97.95
2018-12-05T03:51:32.725Z,97.96
2018-12-05T03:54:00.267Z,97.92
2018-12-05T03:56:27.663Z,98.33
2018-12-05T03:58:55.043Z,98.01
2018-12-05T04:01:22.392Z,98.00
2018-12-05T04:03:49.747Z,97.94
2018-12-05T04:06:17.080Z,97.17
2018-12-05T04:08:44.520Z,97.64
2018-12-05T04:11:11.886Z,97.29
2018-12-05T04:13:39.254Z,96.57
2018-12-05T04:16:06.667Z,95.85
2018-12-05T04:18:34.024Z,95.91
2018-12-05T04:21:01.449Z,95.42
2018-12-05T04:23:28.854Z,96.32
2018-12-05T04:25:56.198Z,95.90
2018-12-05T04:28:23.544Z,96.07
2018-12-05T04:30:50.900Z,96.00
2018-12-05T04:33:18.295Z,96.13
2018-12-05T04:35:45.656Z,95.80
2018-12-05T04:38:13.094Z,96.37
2018-12-05T04:40:40.450Z,96.44
2018-12-05T04:43:07.814Z,96.42
2018-12-05T04:45:35.170Z,96.21
2018-12-05T04:48:02.574Z,96.71
2018-12-05T04:50:29.910Z,96.58
2018-12-05T04:52:57.243Z,96.76
2018-12-05T04:55:24.648Z,96.76
2018-12-05T04:57:52.587Z,96.63
2018-12-05T05:00:20.036Z,96.76
2018-12-05T05:02:47.394Z,96.72
2018-12-05T05:05:14.792Z,96.48
2018-12-05T05:07:42.145Z,96.59
2018-12-05T05:10:11.587Z,96.54
2018-12-05T05:12:38.942Z,96.66
2018-12-05T05:15:06.374Z,96.86
2018-12-05T05:17:33.691Z,96.74
2018-12-05T05:20:01.075Z,96.29
2018-12-05T05:22:28.516Z,96.25
2018-12-05T05:24:55.856Z,96.15
2018-12-05T05:27:23.353Z,95.56
2018-12-05T05:29:50.704Z,95.76
2018-12-05T05:32:18.069Z,96.00
2018-12-05T05:34:45.414Z,96.42
2018-12-05T05:37:12.841Z,96.75
2018-12-05T05:39:40.179Z,95.87
2018-12-05T05:42:07.574Z,96.01
2018-12-05T05:44:34.944Z,95.77
2018-12-05T05:47:02.355Z,96.38
2018-12-05T05:49:29.694Z,96.84
2018-12-05T05:51:57.059Z,96.64
2018-12-05T05:54:24.425Z,95.99
2018-12-05T05:56:51.885Z,95.95
2018-12-05T05:59:19.348Z,95.42
2018-12-05T06:01:46.665Z,96.27
2018-12-05T06:04:14.045Z,95.98
2018-12-05T06:06:41.375Z,95.96
2018-12-05T06:09:08.766Z,96.28
2018-12-05T06:11:36.066Z,95.91
2018-12-05T06:14:03.460Z,95.60
2018-12-05T06:16:30.827Z,96.03
2018-12-05T06:18:58.236Z,95.75
2018-12-05T06:21:25.615Z,96.08
2018-12-05T06:23:53.041Z,96.22
2018-12-05T06:26:20.413Z,96.09
2018-12-05T06:28:47.774Z,95.83
2018-12-05T06:31:15.185Z,96.28
2018-12-05T06:33:42.525Z,96.19
2018-12-05T06:36:09.871Z,96.12
2018-12-05T06:38:37.252Z,96.48
2018-12-05T06:41:04.680Z,96.16
2018-12-05T06:43:32.027Z,96.29
2018-12-05T06:45:59.395Z,96.20
2018-12-05T06:48:26.734Z,95.79
2018-12-05T06:50:54.101Z,96.09
2018-12-05T06:53:21.427Z,95.83
2018-12-05T06:55:48.831Z,96.46
2018-12-05T06:58:16.221Z,95.59
2018-12-05T07:00:43.610Z,95.89
2018-12-05T07:03:11.020Z,96.42
2018-12-05T07:05:38.380Z,96.09
2018-12-05T07:08:05.766Z,96.35
2018-12-05T07:10:33.116Z,96.34
2018-12-05T07:13:00.490Z,96.44
2018-12-05T07:15:27.836Z,96.67
2018-12-05T07:17:55.266Z,96.74
2018-12-05T07:20:22.631Z,96.07
2018-12-05T07:22:49.988Z,96.06
2018-12-05T07:25:17.395Z,96.35
2018-12-05T07:27:44.843Z,96.53
2018-12-05T07:30:12.205Z,95.73
2018-12-05T07:32:39.638Z,96.17
2018-12-05T07:35:07.098Z,96.38
2018-12-05T07:37:34.539Z,96.64
2018-12-05T07:40:01.875Z,96.54
2018-12-05T07:42:29.295Z,97.08
2018-12-05T07:44:56.636Z,96.51
2018-12-05T07:47:24.022Z,96.86
2018-12-05T07:49:51.356Z,96.78
2018-12-05T07:52:18.791Z,97.35
2018-12-05T07:54:46.148Z,96.98
2018-12-05T07:57:13.546Z,95.58
2018-12-05T07:59:40.936Z,95.70
2018-12-05T08:02:08.305Z,95.28
2018-12-05T08:04:35.708Z,94.86
2018-12-05T08:07:03.145Z,95.00
2018-12-05T08:09:30.496Z,94.68
2018-12-05T08:11:57.875Z,94.54
2018-12-05T08:14:25.260Z,94.29
2018-12-05T08:16:52.631Z,94.66
2018-12-05T08:19:19.992Z,94.18
2018-12-05T08:21:47.360Z,94.09
2018-12-05T08:24:14.794Z,93.95
2018-12-05T08:26:42.176Z,93.59
2018-12-05T08:29:10.727Z,94.05
2018-12-05T08:31:38.115Z,94.36
2018-12-05T08:34:05.480Z,94.03
2018-12-05T08:36:32.842Z,94.11
2018-12-05T08:39:00.221Z,94.42
2018-12-05T08:41:27.626Z,94.53
2018-12-05T08:43:55.004Z,94.41
2018-12-05T08:46:22.380Z,94.25
2018-12-05T08:48:49.748Z,94.51
2018-12-05T08:51:17.136Z,94.58
2018-12-05T08:53:44.538Z,94.83
2018-12-05T08:56:11.925Z,94.72
2018-12-05T08:58:39.334Z,95.30
2018-12-05T09:01:06.730Z,95.29
2018-12-05T09:03:34.109Z,94.48
2018-12-05T09:06:01.477Z,94.45
2018-12-05T09:08:28.864Z,94.01
2018-12-05T09:10:56.290Z,94.34
2018-12-05T09:13:23.784Z,94.41
2018-12-05T09:15:51.194Z,94.47
2018-12-05T09:18:18.600Z,93.78
2018-12-05T09:20:45.929Z,94.00
2018-12-05T09:23:13.355Z,94.10
2018-12-05T09:25:40.731Z,94.54
2018-12-05T09:28:08.132Z,93.87
2018-12-05T09:30:35.601Z,93.31
2018-12-05T09:33:03.033Z,93.22
2018-12-05T09:35:30.445Z,93.19
2018-12-05T09:37:57.802Z,92.87
2018-12-05T09:40:25.177Z,93.37
2018-12-05T09:42:52.550Z,93.07
2018-12-05T09:45:19.925Z,92.65
2018-12-05T09:47:47.388Z,92.78
2018-12-05T09:50:14.747Z,92.35
2018-12-05T09:52:42.139Z,92.01
2018-12-05T09:55:09.636Z,91.90
2018-12-05T09:57:37.010Z,91.13
2018-12-05T10:00:05.739Z,91.34
2018-12-05T10:02:33.126Z,91.14
2018-12-05T10:05:00.491Z,90.80
2018-12-05T10:07:27.886Z,90.99
2018-12-05T10:09:55.801Z,91.24
2018-12-05T10:12:23.199Z,90.83
2018-12-05T10:14:50.655Z,91.20
2018-12-05T10:17:18.133Z,91.19
2018-12-05T10:19:45.546Z,91.15
2018-12-05T10:22:12.952Z,90.62
2018-12-05T10:24:40.340Z,90.23
2018-12-05T10:27:07.701Z,90.16
2018-12-05T10:29:35.114Z,90.61
2018-12-05T10:32:02.601Z,90.80
2018-12-05T10:34:29.999Z,90.09
2018-12-05T10:36:57.386Z,89.91
2018-12-05T10:39:24.701Z,90.43
2018-12-05T10:41:52.201Z,89.74
2018-12-05T10:44:19.611Z,89.54
2018-12-05T10:46:46.971Z,88.93
2018-12-05T10:49:14.374Z,88.80
2018-12-05T10:51:41.725Z,89.50
2018-12-05T10:54:09.101Z,89.07
2018-12-05T10:56:36.544Z,88.68
2018-12-05T10:59:04.060Z,88.64
2018-12-05T11:01:37.086Z,88.91
2018-12-05T11:04:08.996Z,89.31
2018-12-05T11:06:42.077Z,89.64
2018-12-05T11:09:15.115Z,88.87
2018-12-05T11:11:48.140Z,88.74
2018-12-05T11:14:21.167Z,88.28
2018-12-05T11:17:51.884Z,88.46
2018-12-05T11:20:24.931Z,88.70
2018-12-05T11:22:58.067Z,88.57
2018-12-05T11:25:25.426Z,88.87
2018-12-05T11:27:52.800Z,88.81
2018-12-05T11:30:20.220Z,89.89
2018-12-05T11:32:47.633Z,90.17
2018-12-05T11:35:15.029Z,88.69
2018-12-05T11:37:42.445Z,89.33
2018-12-05T11:42:47.208Z,88.75
2018-12-05T11:45:14.589Z,89.41
2018-12-05T11:47:41.975Z,89.78
2018-12-05T11:50:09.521Z,89.13
2018-12-05T11:52:36.870Z,89.14
2018-12-05T11:55:04.554Z,89.28
2018-12-05T11:57:31.894Z,88.85
2018-12-05T11:59:59.265Z,88.74
2018-12-05T12:02:26.661Z,88.39
2018-12-05T12:04:54.055Z,88.98
2018-12-05T12:07:21.468Z,88.89
2018-12-05T12:09:48.847Z,89.02
2018-12-05T12:12:21.785Z,89.86
2018-12-05T12:14:49.220Z,90.61
2018-12-05T12:17:16.693Z,89.59
2018-12-05T12:19:44.091Z,88.90
2018-12-05T12:22:11.675Z,88.39
2018-12-05T12:24:39.056Z,88.35
2018-12-05T12:27:06.582Z,88.15
2018-12-05T12:29:33.979Z,87.96
2018-12-05T12:32:01.414Z,87.61
2018-12-05T12:34:28.750Z,88.13
2018-12-05T12:36:56.271Z,89.18
2018-12-05T12:39:23.659Z,89.46
2018-12-05T12:41:51.046Z,90.28
2018-12-05T12:44:18.429Z,91.20
2018-12-05T12:46:45.911Z,91.92
2018-12-05T12:49:13.345Z,91.57
2018-12-05T12:51:40.755Z,91.18
2018-12-05T12:54:08.331Z,90.43
2018-12-05T12:56:35.765Z,90.07
2018-12-05T12:59:03.255Z,89.96
2018-12-05T13:01:30.674Z,90.28
2018-12-05T13:03:58.086Z,90.34
2018-12-05T13:06:25.480Z,90.73
2018-12-05T13:08:52.906Z,91.17
2018-12-05T13:11:20.326Z,90.75
2018-12-05T13:13:47.726Z,90.73
2018-12-05T13:16:15.095Z,91.71
2018-12-05T13:18:42.553Z,90.60
2018-12-05T13:21:09.985Z,90.74
2018-12-05T13:23:37.445Z,91.08
2018-12-05T13:26:04.885Z,91.46
2018-12-05T13:28:32.275Z,92.33
2018-12-05T13:30:59.637Z,91.79
2018-12-05T13:33:27.196Z,91.34
2018-12-05T13:35:54.686Z,92.00
2018-12-05T13:38:22.142Z,91.62
2018-12-05T13:40:49.680Z,91.53
2018-12-05T13:43:17.088Z,92.06
2018-12-05T13:45:44.493Z,91.81
2018-12-05T13:48:11.863Z,91.30
2018-12-05T13:50:39.283Z,91.57
2018-12-05T13:53:06.703Z,92.44
2018-12-05T13:55:34.193Z,91.12
2018-12-05T13:58:01.580Z,92.01
2018-12-05T14:00:29.079Z,92.06
2018-12-05T14:02:56.468Z,92.10
2018-12-05T14:05:23.875Z,91.68
2018-12-05T14:07:51.263Z,92.10
2018-12-05T14:10:22.097Z,93.07
2018-12-05T14:12:49.515Z,93.21
2018-12-05T14:15:16.934Z,93.53
2018-12-05T14:17:44.307Z,93.06
2018-12-05T14:20:11.753Z,93.54
2018-12-05T14:22:39.178Z,94.38
2018-12-05T14:25:07.337Z,93.76
2018-12-05T14:27:35.871Z,93.91
2018-12-05T14:30:03.679Z,94.21
2018-12-05T14:32:31.086Z,94.18
2018-12-05T14:34:58.467Z,93.99
2018-12-05T14:37:27.902Z,94.18
2018-12-05T14:39:55.294Z,93.93
2018-12-05T14:42:22.709Z,94.71
2018-12-05T14:44:50.111Z,94.00
2018-12-05T14:47:18.511Z,94.64
2018-12-05T14:49:45.875Z,94.36
2018-12-05T14:52:13.284Z,94.46
2018-12-05T14:54:40.677Z,94.36
2018-12-05T14:57:08.147Z,95.25
2018-12-05T14:59:35.493Z,94.57
2018-12-05T15:02:02.929Z,95.25
2018-12-05T15:04:35.506Z,95.11
2018-12-05T15:07:03.151Z,95.25
2018-12-05T15:09:30.527Z,96.05
2018-12-05T15:11:57.923Z,95.97
2018-12-05T15:14:25.502Z,95.74
2018-12-05T15:16:52.898Z,95.04
2018-12-05T15:19:25.869Z,95.02
2018-12-05T15:21:56.971Z,95.28
2018-12-05T15:24:24.349Z,95.12
2018-12-05T15:27:03.727Z,95.53
2018-12-05T15:29:31.199Z,95.63
2018-12-05T15:31:58.634Z,95.57
2018-12-05T15:34:26.138Z,95.36
2018-12-05T15:36:53.553Z,95.31
2018-12-05T15:39:21.039Z,95.16
2018-12-05T15:41:48.447Z,95.19
2018-12-05T15:44:15.856Z,95.39
2018-12-05T15:46:43.213Z,94.91
2018-12-05T15:49:10.636Z,94.75
2018-12-05T15:51:38.065Z,95.38
2018-12-05T15:54:05.645Z,95.18
2018-12-05T15:56:33.063Z,95.09
2018-12-05T15:59:00.559Z,94.49
2018-12-05T16:01:27.948Z,94.55
2018-12-05T16:03:55.397Z,94.43
2018-12-05T16:06:22.871Z,94.17
2018-12-05T16:08:50.267Z,94.22
2018-12-05T16:11:17.660Z,94.89
2018-12-05T16:13:45.102Z,95.27
2018-12-05T16:16:20.039Z,94.93
2018-12-05T16:18:47.463Z,95.66
2018-12-05T16:21:14.863Z,95.71
2018-12-05T16:23:42.237Z,95.26
2018-12-05T16:26:10.723Z,96.06
2018-12-05T16:28:38.637Z,95.06
2018-12-05T16:31:06.059Z,95.79
2018-12-05T16:33:33.467Z,95.26
2018-12-05T16:36:00.868Z,94.99
2018-12-05T16:38:28.258Z,94.83
2018-12-05T16:40:55.666Z,95.01
2018-12-05T16:43:23.069Z,95.44
2018-12-05T16:45:50.485Z,95.45
2018-12-05T16:48:17.879Z,95.31
2018-12-05T16:50:45.319Z,95.09
2018-12-05T16:53:12.731Z,96.01
2018-12-05T16:55:40.163Z,96.23
2018-12-05T16:58:07.588Z,96.26
2018-12-05T17:00:34.958Z,95.66
2018-12-05T17:03:02.393Z,95.32
2018-12-05T17:05:29.774Z,94.97
2018-12-05T17:07:57.198Z,94.47
2018-12-05T17:10:24.584Z,94.99
2018-12-05T17:12:52.005Z,95.10
2018-12-05T17:15:19.388Z,95.88
2018-12-05T17:17:46.819Z,95.84
2018-12-05T17:20:14.248Z,96.37
2018-12-05T17:22:41.663Z,95.78
2018-12-05T17:25:09.239Z,95.40
2018-12-05T17:27:36.656Z,95.68
2018-12-05T17:30:04.728Z,95.53
2018-12-05T17:32:32.105Z,95.20
2018-12-05T17:34:59.553Z,95.55
2018-12-05T17:37:27.045Z,95.19
2018-12-05T17:39:54.502Z,95.73
2018-12-05T17:42:22.103Z,95.61
2018-12-05T17:44:49.718Z,95.40
2018-12-05T17:47:17.110Z,96.04
2018-12-05T17:49:44.541Z,95.58
2018-12-05T17:52:11.944Z,95.29
2018-12-05T17:54:39.379Z,95.16
2018-12-05T17:57:06.883Z,96.25
2018-12-05T17:59:34.366Z,95.39
2018-12-05T18:02:01.805Z,94.87
2018-12-05T18:04:29.238Z,94.47
2018-12-05T18:06:56.752Z,94.99
2018-12-05T18:09:24.178Z,95.40
2018-12-05T18:11:51.601Z,94.58
2018-12-05T18:14:19.261Z,95.04
2018-12-05T18:16:46.695Z,94.69
2018-12-05T18:19:14.105Z,94.69
2018-12-05T18:21:41.705Z,95.05
2018-12-05T18:24:09.373Z,95.76
2018-12-05T18:26:36.898Z,95.66
2018-12-05T18:29:04.388Z,96.10
2018-12-05T18:31:31.947Z,96.07
2018-12-05T18:33:59.365Z,96.71
2018-12-05T18:36:26.805Z,96.53
2018-12-05T18:38:54.238Z,96.75
2018-12-05T18:41:21.680Z,96.84
2018-12-05T18:43:49.116Z,96.96
2018-12-05T18:46:16.522Z,97.00
2018-12-05T18:48:43.960Z,96.24
2018-12-05T18:51:11.395Z,96.50
2018-12-05T18:53:38.831Z,95.94
2018-12-05T18:56:06.309Z,96.61
2018-12-05T18:58:33.745Z,96.19
2018-12-05T19:01:01.198Z,95.80
2018-12-05T19:03:28.589Z,95.93
2018-12-05T19:05:55.948Z,96.29
2018-12-05T19:08:23.359Z,95.83
2018-12-05T19:10:50.808Z,96.73
2018-12-05T19:13:18.254Z,96.17
2018-12-05T19:15:45.658Z,96.26
2018-12-05T19:18:13.113Z,96.59
2018-12-05T19:20:40.485Z,96.63
2018-12-05T19:23:07.885Z,96.63
2018-12-05T19:25:35.323Z,96.82
2018-12-05T19:28:02.812Z,96.26
2018-12-05T19:30:30.205Z,96.44
2018-12-05T19:32:57.669Z,96.45
2018-12-05T19:35:25.060Z,95.93
2018-12-05T19:37:52.500Z,96.54
2018-12-05T19:40:20.104Z,96.26
2018-12-05T19:42:47.549Z,95.35
2018-12-05T19:45:14.980Z,95.32
2018-12-05T19:47:42.396Z,95.02
2018-12-05T19:50:09.943Z,95.66
2018-12-05T19:52:37.354Z,95.55
2018-12-05T19:55:04.939Z,95.61
2018-12-05T19:57:32.377Z,95.87
2018-12-05T19:59:59.823Z,96.21
2018-12-05T20:02:27.225Z,96.31
2018-12-05T20:04:54.643Z,96.30
2018-12-05T20:07:22.078Z,96.54
2018-12-05T20:09:49.539Z,95.92
2018-12-05T20:12:16.989Z,96.06
2018-12-05T20:14:44.424Z,95.85
2018-12-05T20:17:11.840Z,95.81
2018-12-05T20:19:39.336Z,96.10
2018-12-05T20:22:06.802Z,96.17
2018-12-05T20:24:34.251Z,96.44
2018-12-05T20:27:04.904Z,96.64
2018-12-05T20:29:32.489Z,96.54
2018-12-05T20:31:59.920Z,96.42
2018-12-05T20:34:27.324Z,96.19
2018-12-05T20:36:59.888Z,95.82
2018-12-05T20:39:27.285Z,95.71
2018-12-05T20:42:00.870Z,95.56
2018-12-05T20:44:28.294Z,95.42
2018-12-05T20:47:05.298Z,95.40
2018-12-05T20:49:32.724Z,95.89
2018-12-05T20:52:00.134Z,95.91
2018-12-05T20:54:27.533Z,95.29
2018-12-05T20:57:04.053Z,95.51
2018-12-05T20:59:31.475Z,95.57
2018-12-05T21:01:58.951Z,95.43
2018-12-05T21:04:30.084Z,95.21
2018-12-05T21:07:05.149Z,95.00
2018-12-05T21:09:38.797Z,95.13
2018-12-05T21:12:06.231Z,94.97
2018-12-05T21:14:33.670Z,95.34
2018-12-05T21:17:01.058Z,94.78
2018-12-05T21:19:28.464Z,95.27
2018-12-05T21:21:55.850Z,95.00
2018-12-05T21:24:23.264Z,95.45
2018-12-05T21:26:50.661Z,95.37
2018-12-05T21:29:18.076Z,95.27
2018-12-05T21:31:45.461Z,95.09
2018-12-05T21:34:12.872Z,94.61
2018-12-05T21:36:45.600Z,94.88
2018-12-05T21:39:13.023Z,94.30
2018-12-05T21:41:40.439Z,95.32
2018-12-05T21:44:07.889Z,94.74
2018-12-05T21:46:35.391Z,94.94
2018-12-05T21:49:02.937Z,94.58
2018-12-05T21:51:30.320Z,94.45
2018-12-05T21:53:57.783Z,94.17
2018-12-05T21:56:25.361Z,94.18
2018-12-05T21:58:52.752Z,94.14
2018-12-05T22:01:20.216Z,94.94
2018-12-05T22:03:47.584Z,94.51
2018-12-05T22:06:22.853Z,94.91
2018-12-05T22:08:52.011Z,94.29
2018-12-05T22:11:22.801Z,94.34
2018-12-05T22:13:50.164Z,94.60
2018-12-05T22:16:25.290Z,95.15
2018-12-05T22:18:52.733Z,94.47
2018-12-05T22:21:20.097Z,94.75
2018-12-05T22:23:47.620Z,95.49
2018-12-05T22:26:19.950Z,94.94
2018-12-05T22:28:47.350Z,95.38
2018-12-05T22:31:14.777Z,95.20
2018-12-05T22:33:42.417Z,95.89
2018-12-05T22:36:10.520Z,96.06
2018-12-05T22:38:37.895Z,95.87
2018-12-05T22:41:08.987Z,95.57
2018-12-05T22:43:36.585Z,95.29
2018-12-05T22:46:04.061Z,95.53
2018-12-05T22:48:33.121Z,94.61
2018-12-05T22:51:00.600Z,94.33
2018-12-05T22:53:27.979Z,94.83
2018-12-05T22:55:55.390Z,95.28
2018-12-05T22:58:22.779Z,94.33
2018-12-05T23:00:53.208Z,94.91
2018-12-05T23:03:20.604Z,94.91
2018-12-05T23:05:47.999Z,94.89
2018-12-05T23:08:19.419Z,94.26
2018-12-05T23:10:46.774Z,94.26
2018-12-05T23:13:14.223Z,94.67
2018-12-05T23:15:41.588Z,94.07
2018-12-05T23:18:08.994Z,93.92
2018-12-05T23:20:36.336Z,94.43
2018-12-05T23:23:03.735Z,94.29
2018-12-05T23:25:31.120Z,93.94
2018-12-05T23:28:08.208Z,94.55
2018-12-05T23:30:35.730Z,93.92
2018-12-05T23:33:03.120Z,94.44
2018-12-05T23:35:30.474Z,94.56
2018-12-05T23:37:58.927Z,94.67
2018-12-05T23:40:26.327Z,94.67
2018-12-05T23:42:53.688Z,94.80
2018-12-05T23:45:21.100Z,94.88
2018-12-05T23:47:48.471Z,95.06
2018-12-05T23:50:15.866Z,95.01
2018-12-05T23:52:43.219Z,95.26
2018-12-05T23:55:10.616Z,95.38
2018-12-05T23:57:38.018Z,95.73
